Time;durP1;ratioP1;P1;durP2;ratioP2;P2;SDS_P1;SDS_P2;PMS_P1;PMS_P2;Temp;Humidity;BMP_temperature;BMP_pressure;BME280_temperature;BME280_humidity;BME280_pressure;Samples;Min_cycle;Max_cycle;Signal;HPM_P1;HPM_P2
2022/04/05 00:00:30;;;;;;;16.65;14.35;;;3.10;99.90;;;;;;5096157;28;20035;-77
2022/04/05 00:02:56;;;;;;;20.20;14.88;;;3.00;99.90;;;;;;5095708;28;20028;-77
2022/04/05 00:05:22;;;;;;;17.88;13.93;;;3.00;99.90;;;;;;5097264;28;20020;-77
2022/04/05 00:07:48;;;;;;;17.33;13.90;;;3.00;99.90;;;;;;5096824;28;20048;-78
2022/04/05 00:10:15;;;;;;;24.80;13.70;;;3.00;99.90;;;;;;5095173;28;20023;-78
2022/04/05 00:12:42;;;;;;;19.40;14.80;;;3.10;99.90;;;;;;5097463;28;20077;-78
2022/04/05 00:15:09;;;;;;;20.05;16.30;;;3.10;99.90;;;;;;5100155;28;20484;-78
2022/04/05 00:17:36;;;;;;;23.23;15.13;;;3.20;99.90;;;;;;5101166;28;20024;-78
2022/04/05 00:20:03;;;;;;;17.85;14.23;;;3.20;99.90;;;;;;5099956;28;20024;-77
2022/04/05 00:22:30;;;;;;;16.98;13.50;;;3.30;99.90;;;;;;5099833;28;20020;-78
2022/04/05 00:24:56;;;;;;;20.10;13.77;;;3.30;99.90;;;;;;5101179;28;20017;-77
2022/04/05 00:27:22;;;;;;;23.38;15.60;;;3.50;99.90;;;;;;5100802;28;20054;-78
2022/04/05 00:29:48;;;;;;;18.20;14.20;;;3.50;99.90;;;;;;5101139;28;20027;-78
2022/04/05 00:32:14;;;;;;;17.30;13.40;;;3.50;99.90;;;;;;5100750;28;20024;-77
2022/04/05 00:34:40;;;;;;;15.73;13.48;;;3.60;99.90;;;;;;5099503;28;20020;-78
2022/04/05 00:37:06;;;;;;;16.48;12.82;;;3.60;99.90;;;;;;5100743;28;20032;-77
2022/04/05 00:39:32;;;;;;;15.00;12.98;;;3.60;99.90;;;;;;5099195;28;20024;-78
2022/04/05 00:41:58;;;;;;;16.27;12.68;;;3.50;99.90;;;;;;5100507;28;20837;-77
2022/04/05 00:44:25;;;;;;;14.23;12.57;;;3.50;99.90;;;;;;5100581;28;20498;-78
2022/04/05 00:46:53;;;;;;;15.50;12.68;;;3.50;99.90;;;;;;5100566;28;20020;-77
2022/04/05 00:49:30;;;;;;;18.02;13.07;;;3.50;99.90;;;;;;5100711;28;20028;-78
2022/04/05 00:51:58;;;;;;;16.25;13.02;;;3.40;99.90;;;;;;5098924;28;20038;-79
2022/04/05 00:54:25;;;;;;;16.05;12.88;;;3.40;99.90;;;;;;5098863;28;20063;-77
2022/04/05 00:56:55;;;;;;;17.80;12.50;;;3.40;99.90;;;;;;5099236;28;20119;-77
2022/04/05 00:59:23;;;;;;;14.20;12.10;;;3.40;99.90;;;;;;5085739;28;20028;-78
2022/04/05 01:01:51;;;;;;;16.70;12.75;;;3.40;99.90;;;;;;5098921;28;20511;-78
2022/04/05 01:04:18;;;;;;;17.85;12.77;;;3.40;99.90;;;;;;5100349;28;20016;-78
2022/04/05 01:06:47;;;;;;;19.15;14.43;;;3.40;99.90;;;;;;5100233;28;20147;-78
2022/04/05 01:09:14;;;;;;;16.08;13.23;;;3.40;99.90;;;;;;5100289;28;20024;-78
2022/04/05 01:11:40;;;;;;;12.95;11.35;;;3.40;99.90;;;;;;5098811;28;20050;-78
2022/04/05 01:14:06;;;;;;;14.35;12.27;;;3.30;99.90;;;;;;5099293;28;20020;-77
2022/04/05 01:16:33;;;;;;;15.85;12.52;;;3.30;99.90;;;;;;5100106;28;20024;-78
2022/04/05 01:18:59;;;;;;;16.17;12.32;;;3.30;99.90;;;;;;5098565;28;20487;-78
2022/04/05 01:21:27;;;;;;;15.63;12.57;;;3.30;99.90;;;;;;5100054;28;20077;-77
2022/04/05 01:24:11;;;;;;;16.25;12.65;;;3.30;99.90;;;;;;5097517;28;20392;-78
2022/04/05 01:26:48;;;;;;;13.95;11.85;;;3.30;99.90;;;;;;5099900;28;20488;-78
2022/04/05 01:29:15;;;;;;;16.52;11.52;;;3.30;99.90;;;;;;5098451;28;20066;-78
2022/04/05 01:31:48;;;;;;;16.23;12.95;;;3.40;99.90;;;;;;5098377;28;20039;-77
2022/04/05 01:34:16;;;;;;;16.88;12.10;;;3.30;99.90;;;;;;5099795;28;20019;-78
2022/04/05 01:36:44;;;;;;;16.73;13.02;;;3.20;99.90;;;;;;5098545;28;20108;-78
2022/04/05 01:39:11;;;;;;;15.18;12.88;;;3.20;99.90;;;;;;5098289;28;20504;-78
2022/04/05 01:41:37;;;;;;;16.77;13.35;;;3.10;99.90;;;;;;5099554;28;20119;-79
2022/04/05 01:44:05;;;;;;;13.95;12.50;;;3.10;99.90;;;;;;5099599;28;20036;-77
2022/04/05 01:46:34;;;;;;;13.65;12.25;;;3.10;99.90;;;;;;5098435;28;20031;-77
2022/04/05 01:49:01;;;;;;;15.88;12.18;;;3.10;99.90;;;;;;5099723;28;20024;-77
2022/04/05 01:51:27;;;;;;;17.25;12.32;;;3.20;99.90;;;;;;5097909;28;20035;-78
2022/04/05 01:53:57;;;;;;;15.57;13.13;;;3.10;99.90;;;;;;5099055;28;20016;-78
2022/04/05 01:56:23;;;;;;;13.45;12.07;;;3.10;99.90;;;;;;5099391;28;20031;-78
2022/04/05 01:58:49;;;;;;;15.68;12.77;;;3.10;99.90;;;;;;5098104;28;20024;-78
2022/04/05 02:01:15;;;;;;;14.48;11.63;;;3.10;99.90;;;;;;5099071;28;20097;-78
2022/04/05 02:03:41;;;;;;;35.45;14.52;;;3.10;99.90;;;;;;5098007;28;20021;-78
2022/04/05 02:06:09;;;;;;;15.73;12.48;;;3.10;99.90;;;;;;5099061;28;20187;-78
2022/04/05 02:08:35;;;;;;;17.35;12.02;;;3.00;99.90;;;;;;5096510;28;20028;-78
2022/04/05 02:11:01;;;;;;;14.57;12.30;;;2.90;99.90;;;;;;5097894;28;20849;-78
2022/04/05 02:13:27;;;;;;;14.48;12.55;;;2.70;99.90;;;;;;5099007;28;20251;-79
2022/04/05 02:15:53;;;;;;;15.35;13.35;;;2.60;99.90;;;;;;5098755;28;20023;-77
2022/04/05 02:18:18;;;;;;;15.15;13.00;;;2.50;99.90;;;;;;5097560;28;20027;-77
2022/04/05 02:20:44;;;;;;;14.13;12.60;;;2.50;99.90;;;;;;5098602;28;20021;-77
2022/04/05 02:23:10;;;;;;;14.48;12.98;;;2.50;99.90;;;;;;5098559;28;20020;-78
2022/04/05 02:25:36;;;;;;;15.43;13.65;;;2.50;99.90;;;;;;5097262;28;20021;-78
2022/04/05 02:28:02;;;;;;;14.25;11.68;;;2.50;99.90;;;;;;5098587;28;20028;-78
2022/04/05 02:30:28;;;;;;;16.20;11.95;;;2.60;99.90;;;;;;5098750;28;20024;-78
2022/04/05 02:32:54;;;;;;;15.38;12.13;;;2.50;99.90;;;;;;5098673;28;20052;-78
2022/04/05 02:35:19;;;;;;;16.52;12.77;;;2.60;99.90;;;;;;5097727;28;20480;-78
2022/04/05 02:37:45;;;;;;;15.15;12.75;;;2.50;99.90;;;;;;5097962;28;20020;-78
2022/04/05 02:40:12;;;;;;;14.48;12.07;;;2.50;99.90;;;;;;5096995;28;20373;-78
2022/04/05 02:42:39;;;;;;;17.70;13.00;;;2.30;99.90;;;;;;5097307;28;20028;-78
2022/04/05 02:45:05;;;;;;;16.45;13.40;;;2.20;99.90;;;;;;5096885;28;20040;-78
2022/04/05 02:47:31;;;;;;;15.15;12.82;;;2.10;99.90;;;;;;5097041;28;20827;-78
2022/04/05 02:49:57;;;;;;;15.25;12.95;;;2.00;99.90;;;;;;5098552;28;20031;-78
2022/04/05 02:52:23;;;;;;;18.80;12.73;;;1.80;99.90;;;;;;5098100;28;20031;-78
2022/04/05 02:54:49;;;;;;;24.75;12.90;;;1.80;99.90;;;;;;5096694;28;20035;-78
2022/04/05 02:57:18;;;;;;;15.25;12.98;;;1.70;99.90;;;;;;5098062;28;20025;-78
2022/04/05 02:59:44;;;;;;;14.05;12.40;;;1.60;99.90;;;;;;5097057;28;20027;-78
2022/04/05 03:02:10;;;;;;;18.27;13.57;;;1.50;99.90;;;;;;5096871;28;20020;-77
2022/04/05 03:04:36;;;;;;;15.75;13.90;;;1.50;99.90;;;;;;5096969;28;20024;-78
2022/04/05 03:07:03;;;;;;;16.92;13.85;;;1.40;99.90;;;;;;5096827;28;20028;-78
2022/04/05 03:09:29;;;;;;;19.45;13.10;;;1.40;99.90;;;;;;5096468;28;20027;-78
2022/04/05 03:11:55;;;;;;;15.40;13.68;;;1.30;99.90;;;;;;5098046;28;20032;-78
2022/04/05 03:14:21;;;;;;;16.63;13.77;;;1.30;99.90;;;;;;5096843;28;20016;-78
2022/04/05 03:16:47;;;;;;;16.90;14.43;;;1.20;99.90;;;;;;5096649;28;20506;-78
2022/04/05 03:19:13;;;;;;;16.45;13.43;;;1.20;99.90;;;;;;5097904;28;20044;-79
2022/04/05 03:21:39;;;;;;;15.20;13.38;;;1.20;99.90;;;;;;5097721;28;20050;-78
2022/04/05 03:24:06;;;;;;;16.73;13.85;;;1.40;99.90;;;;;;5097464;28;20079;-78
2022/04/05 03:26:31;;;;;;;18.38;13.70;;;1.60;99.90;;;;;;5097589;28;20085;-78
2022/04/05 03:28:57;;;;;;;16.33;13.82;;;1.80;99.90;;;;;;5092968;28;20036;-78
2022/04/05 03:31:24;;;;;;;21.90;14.32;;;1.90;99.90;;;;;;5088864;28;20022;-77
2022/04/05 03:33:49;;;;;;;15.52;13.52;;;2.10;99.90;;;;;;5097512;28;20012;-77
2022/04/05 03:36:15;;;;;;;17.23;13.50;;;2.10;99.90;;;;;;5096231;28;20541;-78
2022/04/05 03:38:41;;;;;;;17.50;13.15;;;2.20;99.90;;;;;;5095710;28;20099;-77
2022/04/05 03:41:07;;;;;;;16.00;13.65;;;2.30;99.90;;;;;;5097831;28;20532;-77
2022/04/05 03:43:33;;;;;;;16.25;14.00;;;2.20;99.90;;;;;;5097015;28;20020;-77
2022/04/05 03:45:59;;;;;;;18.73;14.40;;;2.10;99.90;;;;;;5096431;28;20039;-77
2022/04/05 03:48:26;;;;;;;22.25;14.27;;;2.10;99.90;;;;;;5096936;28;20103;-77
2022/04/05 03:50:52;;;;;;;19.48;15.63;;;2.00;99.90;;;;;;5097474;28;20024;-78
2022/04/05 03:53:18;;;;;;;19.27;14.60;;;1.80;99.90;;;;;;5096972;28;20023;-77
2022/04/05 03:55:44;;;;;;;21.88;15.98;;;1.70;99.90;;;;;;5097682;28;20051;-78
2022/04/05 03:58:12;;;;;;;16.50;14.10;;;1.60;99.90;;;;;;5095713;28;20111;-78
2022/04/05 04:00:38;;;;;;;17.65;14.40;;;1.50;99.90;;;;;;5097553;28;20059;-78
2022/04/05 04:03:04;;;;;;;19.23;14.23;;;1.40;99.90;;;;;;5097152;28;20016;-78
2022/04/05 04:05:30;;;;;;;17.23;14.00;;;1.30;99.90;;;;;;5095946;28;20031;-77
2022/04/05 04:07:56;;;;;;;17.15;13.77;;;1.20;99.90;;;;;;5096818;28;20052;-78
2022/04/05 04:10:22;;;;;;;15.20;13.65;;;1.20;99.90;;;;;;5095986;28;20035;-77
2022/04/05 04:12:48;;;;;;;18.73;15.05;;;1.10;99.90;;;;;;5095840;28;20031;-77
2022/04/05 04:15:14;;;;;;;16.70;14.38;;;1.10;99.90;;;;;;5095937;28;20506;-78
2022/04/05 04:17:40;;;;;;;20.77;14.57;;;1.00;99.90;;;;;;5097159;28;20048;-77
2022/04/05 04:20:08;;;;;;;19.50;16.00;;;0.90;99.90;;;;;;5095660;28;20032;-78
2022/04/05 04:22:34;;;;;;;23.50;15.38;;;0.90;99.90;;;;;;5096902;28;20438;-78
2022/04/05 04:24:59;;;;;;;18.95;14.63;;;0.90;99.90;;;;;;5097192;28;20095;-78
2022/04/05 04:27:25;;;;;;;17.10;15.05;;;1.10;99.90;;;;;;5097057;28;20921;-78
2022/04/05 04:29:52;;;;;;;19.45;15.18;;;1.20;99.90;;;;;;5095579;28;20035;-77
2022/04/05 04:32:18;;;;;;;17.90;14.95;;;1.30;99.90;;;;;;5096911;28;20065;-77
2022/04/05 04:34:44;;;;;;;16.88;14.05;;;1.40;99.90;;;;;;5095872;28;20031;-77
2022/04/05 04:37:10;;;;;;;16.70;14.50;;;1.30;99.90;;;;;;5095596;28;20427;-77
2022/04/05 04:39:37;;;;;;;17.67;15.55;;;1.30;99.90;;;;;;5096986;28;20075;-78
2022/04/05 04:42:03;;;;;;;16.48;14.45;;;1.30;99.90;;;;;;5096854;28;20476;-78
2022/04/05 04:44:29;;;;;;;16.75;14.43;;;1.20;99.90;;;;;;5095643;28;20106;-77
2022/04/05 04:46:55;;;;;;;20.88;16.48;;;1.20;99.90;;;;;;5095610;28;20025;-78
2022/04/05 04:49:21;;;;;;;19.35;14.85;;;1.10;99.90;;;;;;5096968;28;20028;-77
2022/04/05 04:51:47;;;;;;;19.63;15.55;;;1.10;99.90;;;;;;5095331;28;20059;-79
2022/04/05 04:54:12;;;;;;;22.77;16.20;;;1.00;99.90;;;;;;5095558;28;20028;-78
2022/04/05 04:56:38;;;;;;;17.25;14.27;;;0.90;99.90;;;;;;5096500;28;20545;-78
2022/04/05 04:59:04;;;;;;;19.08;15.15;;;0.80;99.90;;;;;;5097396;28;20049;-79
2022/04/05 05:01:30;;;;;;;19.83;15.43;;;0.80;99.90;;;;;;5100199;28;20426;-78
2022/04/05 05:03:56;;;;;;;19.30;15.48;;;0.70;99.90;;;;;;5099166;28;20024;-78
2022/04/05 05:06:21;;;;;;;16.77;14.65;;;0.60;99.90;;;;;;5100185;28;20567;-78
2022/04/05 05:08:47;;;;;;;18.20;14.60;;;0.50;99.90;;;;;;5099905;28;20030;-78
2022/04/05 05:11:13;;;;;;;21.85;15.13;;;0.40;99.90;;;;;;5098729;28;20085;-78
2022/04/05 05:13:39;;;;;;;21.90;17.08;;;0.30;99.90;;;;;;5099987;28;20059;-78
2022/04/05 05:16:05;;;;;;;20.20;16.33;;;0.30;99.90;;;;;;5099931;28;20041;-78
2022/04/05 05:18:31;;;;;;;19.20;15.88;;;0.20;99.90;;;;;;5098954;28;20024;-78
2022/04/05 05:20:57;;;;;;;22.08;16.05;;;0.20;99.90;;;;;;5098783;28;20050;-78
2022/04/05 05:23:23;;;;;;;21.52;14.70;;;0.10;99.90;;;;;;5098845;28;21331;-79
2022/04/05 05:25:49;;;;;;;21.67;15.45;;;0.10;99.90;;;;;;5099606;28;20099;-79
2022/04/05 05:28:15;;;;;;;17.70;15.02;;;0.10;99.90;;;;;;5099660;28;20056;-78
2022/04/05 05:30:41;;;;;;;23.88;15.65;;;0.10;99.90;;;;;;5079338;28;20562;-78
2022/04/05 05:33:07;;;;;;;24.65;16.95;;;0.00;99.90;;;;;;5095804;28;20110;-78
2022/04/05 05:35:33;;;;;;;18.90;16.05;;;0.00;99.90;;;;;;5098179;28;20025;-78
2022/04/05 05:37:59;;;;;;;20.83;15.25;;;0.00;99.90;;;;;;5099389;28;20103;-79
2022/04/05 05:40:26;;;;;;;20.52;16.60;;;0.00;99.90;;;;;;5099499;28;20031;-78
2022/04/05 05:42:59;;;;;;;21.17;17.63;;;0.00;99.90;;;;;;5098362;28;20028;-78
2022/04/05 05:45:27;;;;;;;23.73;17.27;;;0.00;99.90;;;;;;5097791;28;20048;-79
2022/04/05 05:47:53;;;;;;;28.88;17.77;;;0.00;99.90;;;;;;5099337;28;20027;-79
2022/04/05 05:50:20;;;;;;;28.90;20.48;;;0.00;99.90;;;;;;5098478;28;20028;-78
2022/04/05 05:52:46;;;;;;;25.85;19.15;;;0.10;99.90;;;;;;5097344;28;20528;-78
2022/04/05 05:55:15;;;;;;;27.50;19.17;;;0.10;99.90;;;;;;5098867;28;20020;-78
2022/04/05 05:57:41;;;;;;;27.45;20.17;;;0.10;99.90;;;;;;5098476;28;20031;-79
2022/04/05 06:00:17;;;;;;;28.77;19.85;;;0.10;99.90;;;;;;5097164;28;20024;-79
2022/04/05 06:02:44;;;;;;;25.88;20.75;;;0.20;99.90;;;;;;5097285;28;20041;-78
2022/04/05 06:05:11;;;;;;;29.25;20.05;;;0.30;99.90;;;;;;5097264;28;20020;-78
2022/04/05 06:07:37;;;;;;;25.55;19.42;;;0.40;99.90;;;;;;5098322;28;20435;-78
2022/04/05 06:10:05;;;;;;;29.63;21.10;;;0.50;99.90;;;;;;5096915;28;20120;-78
2022/04/05 06:12:31;;;;;;;33.67;22.50;;;0.60;99.90;;;;;;5098584;28;20028;-78
2022/04/05 06:14:57;;;;;;;25.98;18.10;;;0.80;99.90;;;;;;5098727;28;20012;-78
2022/04/05 06:17:24;;;;;;;32.45;20.65;;;1.00;99.90;;;;;;5097271;28;20426;-78
2022/04/05 06:19:51;;;;;;;26.13;19.05;;;1.20;99.90;;;;;;5097314;28;20020;-78
2022/04/05 06:22:17;;;;;;;23.42;17.90;;;1.50;99.90;;;;;;5080670;28;20572;-79
2022/04/05 06:24:43;;;;;;;17.00;14.85;;;1.70;99.90;;;;;;5096933;28;20020;-80
2022/04/05 06:27:09;;;;;;;17.95;14.48;;;1.90;99.90;;;;;;5078919;28;20024;-80
2022/04/05 06:29:34;;;;;;;16.15;14.23;;;2.10;99.90;;;;;;5096276;28;20030;-80
2022/04/05 06:32:01;;;;;;;17.05;14.45;;;2.20;99.90;;;;;;5098515;28;20027;-79
2022/04/05 06:34:27;;;;;;;20.63;14.25;;;2.40;99.90;;;;;;5098640;28;20016;-79
2022/04/05 06:36:53;;;;;;;19.33;17.00;;;2.50;99.90;;;;;;5098345;28;20031;-79
2022/04/05 06:39:19;;;;;;;62.08;35.97;;;2.70;99.90;;;;;;5098468;28;20031;-80
2022/04/05 06:41:46;;;;;;;34.35;20.00;;;2.80;99.90;;;;;;5096964;28;20028;-80
2022/04/05 06:44:12;;;;;;;20.13;14.02;;;2.90;99.90;;;;;;5098658;28;20047;-79
2022/04/05 06:46:38;;;;;;;18.65;14.75;;;3.00;99.90;;;;;;5097081;28;20052;-79
2022/04/05 06:49:04;;;;;;;20.05;12.48;;;3.10;99.90;;;;;;5088359;28;20021;-79
2022/04/05 06:51:30;;;;;;;16.88;13.18;;;3.20;99.90;;;;;;5097767;28;20058;-80
2022/04/05 06:53:57;;;;;;;14.73;13.13;;;3.20;99.90;;;;;;5097237;28;20027;-79
2022/04/05 06:56:25;;;;;;;19.13;12.82;;;3.30;99.90;;;;;;5095887;28;20111;-79
2022/04/05 06:58:52;;;;;;;16.52;12.50;;;3.30;99.90;;;;;;5076200;28;20013;-80
2022/04/05 07:01:18;;;;;;;13.90;12.35;;;3.40;99.90;;;;;;5079516;28;20561;-79
2022/04/05 07:03:44;;;;;;;17.65;14.13;;;3.60;99.90;;;;;;5089365;28;20603;-78
2022/04/05 07:06:10;;;;;;;19.48;12.30;;;3.60;99.90;;;;;;5085012;28;20039;-79
2022/04/05 07:08:36;;;;;;;16.00;13.50;;;3.70;99.90;;;;;;5083541;28;20040;-79
2022/04/05 07:11:03;;;;;;;20.00;13.23;;;3.80;99.90;;;;;;5097295;28;20031;-79
2022/04/05 07:13:30;;;;;;;21.58;14.20;;;3.90;99.90;;;;;;5095793;28;20020;-81
2022/04/05 07:15:57;;;;;;;21.55;13.93;;;4.00;99.90;;;;;;5084859;28;20024;-79
2022/04/05 07:18:22;;;;;;;17.17;11.38;;;4.10;99.90;;;;;;5077069;28;20140;-79
2022/04/05 07:20:48;;;;;;;19.75;12.48;;;4.10;99.90;;;;;;5082102;28;20051;-78
2022/04/05 07:23:17;;;;;;;14.65;12.98;;;4.20;99.90;;;;;;5077569;28;20016;-79
2022/04/05 07:25:43;;;;;;;19.00;14.30;;;4.40;99.90;;;;;;5080767;28;20020;-78
2022/04/05 07:28:09;;;;;;;19.35;12.55;;;4.40;99.90;;;;;;5079444;28;20023;-79
2022/04/05 07:30:35;;;;;;;15.90;12.73;;;4.50;99.90;;;;;;5093925;28;20096;-79
2022/04/05 07:33:01;;;;;;;20.45;12.90;;;4.50;99.90;;;;;;5095734;28;20024;-78
2022/04/05 07:35:27;;;;;;;18.95;12.85;;;4.60;99.90;;;;;;5096843;28;20016;-79
2022/04/05 07:37:54;;;;;;;17.35;14.02;;;4.70;99.90;;;;;;5095929;28;20032;-79
2022/04/05 07:40:20;;;;;;;16.73;12.52;;;4.80;99.90;;;;;;5097386;28;20030;-79
2022/04/05 07:42:47;;;;;;;18.00;12.63;;;4.90;99.90;;;;;;5096187;28;20024;-80
2022/04/05 07:45:14;;;;;;;15.23;13.50;;;4.90;99.90;;;;;;5095958;28;20058;-79
2022/04/05 07:47:41;;;;;;;19.38;12.48;;;5.00;99.90;;;;;;5096307;28;20028;-79
2022/04/05 07:50:08;;;;;;;15.77;12.95;;;5.10;99.90;;;;;;5097659;28;20028;-79
2022/04/05 07:52:34;;;;;;;17.50;11.45;;;5.20;99.90;;;;;;5095130;28;20028;-80
2022/04/05 07:55:00;;;;;;;15.48;11.35;;;5.30;99.90;;;;;;5095959;28;20388;-79
2022/04/05 07:57:26;;;;;;;16.48;10.80;;;5.40;99.90;;;;;;5096181;28;20032;-81
2022/04/05 07:59:52;;;;;;;15.88;10.50;;;5.50;99.90;;;;;;5097103;28;20100;-79
2022/04/05 08:02:18;;;;;;;17.27;10.98;;;5.60;99.90;;;;;;5096862;28;20028;-79
2022/04/05 08:04:45;;;;;;;14.45;11.27;;;5.60;99.90;;;;;;5097211;28;20044;-79
2022/04/05 08:07:10;;;;;;;17.35;12.23;;;5.70;99.90;;;;;;5096783;28;20078;-79
2022/04/05 08:09:36;;;;;;;16.58;11.55;;;5.70;99.90;;;;;;5097085;28;20020;-79
2022/04/05 08:12:02;;;;;;;15.75;11.43;;;5.80;99.90;;;;;;5096985;28;20024;-79
2022/04/05 08:14:29;;;;;;;15.77;11.35;;;5.90;99.90;;;;;;5097071;28;20047;-79
2022/04/05 08:16:57;;;;;;;20.55;11.40;;;6.00;99.90;;;;;;5095768;28;20043;-80
2022/04/05 08:19:23;;;;;;;17.20;11.73;;;6.20;99.90;;;;;;5096922;28;20027;-79
2022/04/05 08:21:50;;;;;;;17.17;10.65;;;6.30;99.90;;;;;;5094255;28;20027;-80
2022/04/05 08:24:17;;;;;;;17.17;11.13;;;6.50;99.90;;;;;;5095365;28;20023;-79
2022/04/05 08:26:43;;;;;;;14.55;10.30;;;6.50;99.90;;;;;;5096909;28;20494;-79
2022/04/05 08:29:09;;;;;;;16.02;11.32;;;6.60;99.90;;;;;;5090494;28;20021;-80
2022/04/05 08:31:35;;;;;;;14.98;10.93;;;6.70;99.90;;;;;;5089727;28;20438;-79
2022/04/05 08:34:01;;;;;;;18.33;11.40;;;6.80;99.90;;;;;;5097465;28;20115;-80
2022/04/05 08:36:28;;;;;;;14.38;10.48;;;6.90;99.90;;;;;;5099506;28;20024;-80
2022/04/05 08:38:54;;;;;;;15.13;10.82;;;6.90;99.90;;;;;;5099163;28;20051;-79
2022/04/05 08:41:21;;;;;;;13.23;10.70;;;7.10;99.90;;;;;;5098798;28;20483;-77
2022/04/05 08:43:49;;;;;;;15.93;12.40;;;7.20;99.90;;;;;;5100716;28;20024;-78
2022/04/05 08:46:17;;;;;;;15.68;10.93;;;7.20;99.90;;;;;;5099189;28;20480;-78
2022/04/05 08:48:46;;;;;;;13.93;10.27;;;7.30;99.90;;;;;;5100985;28;20045;-78
2022/04/05 08:51:12;;;;;;;17.13;11.40;;;7.40;99.90;;;;;;5099123;28;20373;-77
2022/04/05 08:53:39;;;;;;;17.48;12.13;;;7.50;99.90;;;;;;5098895;28;20035;-78
2022/04/05 08:56:05;;;;;;;15.88;10.95;;;7.50;99.90;;;;;;5099121;28;20035;-78
2022/04/05 08:58:31;;;;;;;14.70;10.77;;;7.60;99.90;;;;;;5098326;28;20020;-77
2022/04/05 09:00:57;;;;;;;17.17;12.07;;;7.60;99.90;;;;;;5098969;28;20100;-78
2022/04/05 09:03:23;;;;;;;15.63;10.70;;;7.70;99.90;;;;;;5099341;28;20016;-80
2022/04/05 09:05:50;;;;;;;17.60;10.68;;;7.80;99.90;;;;;;5100179;28;20095;-78
2022/04/05 09:08:30;;;;;;;16.42;11.32;;;7.90;99.90;;;;;;5100230;28;20024;-79
2022/04/05 09:11:04;;;;;;;19.15;11.43;;;7.90;99.90;;;;;;5100191;28;20232;-78
2022/04/05 09:13:31;;;;;;;15.20;11.52;;;8.10;99.90;;;;;;5100102;28;20024;-79
2022/04/05 09:15:59;;;;;;;13.95;10.23;;;8.10;99.90;;;;;;5098859;28;20544;-79
2022/04/05 09:18:36;;;;;;;17.40;11.15;;;8.10;99.90;;;;;;5100189;28;20020;-78
2022/04/05 09:21:04;;;;;;;20.27;11.10;;;8.20;99.90;;;;;;5099652;28;20448;-78
2022/04/05 09:23:38;;;;;;;16.30;10.52;;;8.30;99.90;;;;;;5099830;28;20020;-80
2022/04/05 09:26:09;;;;;;;14.35;11.13;;;8.40;99.90;;;;;;5100159;28;20021;-79
2022/04/05 09:28:44;;;;;;;;;;;8.50;99.90;;;;;;5100012;28;20016;-79
2022/04/05 09:31:12;;;;;;;23.42;11.70;;;8.60;99.70;;;;;;5089844;28;20368;-80
2022/04/05 09:33:41;;;;;;;17.45;11.05;;;8.70;99.60;;;;;;5095920;28;20199;-82
2022/04/05 09:36:09;;;;;;;16.27;10.48;;;8.70;99.50;;;;;;5099829;28;20016;-83
2022/04/05 09:38:37;;;;;;;19.30;11.48;;;8.80;97.90;;;;;;5099376;28;20595;-81
2022/04/05 09:41:33;;;;;;;15.45;11.52;;;8.90;98.40;;;;;;5099459;28;20023;-81
2022/04/05 09:44:01;;;;;;;15.60;10.38;;;9.20;98.00;;;;;;5098969;28;20400;-80
2022/04/05 09:46:28;;;;;;;15.52;11.68;;;9.40;96.80;;;;;;5097085;28;20018;-80
2022/04/05 09:49:08;;;;;;;18.63;9.40;;;9.50;97.20;;;;;;5092919;28;20081;-80
2022/04/05 09:51:36;;;;;;;13.20;9.00;;;9.60;95.00;;;;;;5099267;28;20051;-78
2022/04/05 09:54:02;;;;;;;18.33;11.23;;;9.40;94.60;;;;;;5097915;28;20051;-80
2022/04/05 09:56:38;;;;;;;22.05;11.30;;;9.40;95.00;;;;;;5099631;28;20496;-79
2022/04/05 09:59:18;;;;;;;16.67;10.13;;;9.60;94.20;;;;;;5098222;28;20028;-79
2022/04/05 10:01:46;;;;;;;17.25;10.93;;;9.60;92.70;;;;;;5098736;28;20376;-81
2022/04/05 10:04:17;;;;;;;15.27;10.50;;;9.70;94.20;;;;;;5097414;28;20031;-80
2022/04/05 10:06:47;;;;;;;15.70;10.70;;;9.70;92.00;;;;;;5099235;28;20009;-81
2022/04/05 10:09:14;;;;;;;21.75;12.40;;;9.70;92.10;;;;;;5097439;28;20510;-81
2022/04/05 10:11:42;;;;;;;18.38;11.75;;;9.60;92.00;;;;;;5099219;28;20024;-80
2022/04/05 10:14:10;;;;;;;20.95;11.82;;;9.80;93.20;;;;;;5093616;28;20028;-80
2022/04/05 10:16:37;;;;;;;18.00;12.40;;;9.90;92.00;;;;;;5099099;28;20362;-79
2022/04/05 10:19:06;;;;;;;17.95;11.35;;;9.90;91.80;;;;;;5098920;28;20027;-78
2022/04/05 10:21:35;;;;;;;19.35;11.65;;;9.90;94.60;;;;;;5093942;28;20016;-80
2022/04/05 10:24:06;;;;;;;32.22;12.95;;;9.90;92.90;;;;;;5093375;28;20024;-79
2022/04/05 10:26:34;;;;;;;27.67;12.13;;;10.10;92.90;;;;;;5097552;28;20012;-80
2022/04/05 10:29:06;;;;;;;18.42;10.98;;;10.50;91.90;;;;;;5095969;28;20032;-81
2022/04/05 10:31:45;;;;;;;16.38;10.38;;;10.60;90.40;;;;;;5097564;28;20016;-79
2022/04/05 10:34:22;;;;;;;17.00;10.63;;;10.60;90.00;;;;;;5096641;28;20049;-83
2022/04/05 10:37:10;;;;;;;15.80;11.15;;;10.70;90.60;;;;;;5088202;28;20031;-83
2022/04/05 10:39:37;;;;;;;16.33;10.63;;;10.80;89.50;;;;;;5098598;28;20031;-85
2022/04/05 10:42:12;;;;;;;25.13;11.38;;;10.90;84.90;;;;;;5093966;28;20020;-83
2022/04/05 10:44:53;;;;;;;19.60;12.35;;;10.90;85.80;;;;;;5102522;28;20048;-84
2022/04/05 10:47:19;;;;;;;;;;;10.90;84.30;;;;;;5100459;28;20051;-84
2022/04/05 10:49:50;;;;;;;17.77;11.68;;;10.90;85.70;;;;;;5100075;28;19904;-84
2022/04/05 10:52:18;;;;;;;;;;;11.00;85.20;;;;;;5103492;28;20028;-84
2022/04/05 10:54:51;;;;;;;16.95;11.82;;;11.10;85.80;;;;;;5105807;28;19920;-83
2022/04/05 10:57:30;;;;;;;18.38;12.40;;;11.20;84.50;;;;;;5101506;28;20051;-82
2022/04/05 11:00:12;;;;;;;17.05;11.32;;;11.30;86.30;;;;;;5102957;28;20031;-84
2022/04/05 11:02:51;;;;;;;18.33;11.80;;;11.20;79.80;;;;;;5106360;28;20017;-83
2022/04/05 11:05:19;;;;;;;17.80;11.02;;;11.20;80.70;;;;;;5103918;28;20043;-84
2022/04/05 11:07:54;;;;;;;16.92;10.98;;;11.10;84.40;;;;;;5099380;28;20023;-82
2022/04/05 11:10:44;;;;;;;15.57;8.98;;;11.30;83.30;;;;;;5100945;28;20032;-86
2022/04/05 11:13:31;;;;;;;18.60;12.97;;;11.50;80.60;;;;;;5095511;28;20024;-83
2022/04/05 11:15:59;;;;;;;21.17;11.05;;;11.30;79.80;;;;;;5103726;28;20318;-83
2022/04/05 11:18:27;;;;;;;16.00;9.35;;;11.20;81.50;;;;;;5101431;28;20100;-84
2022/04/05 11:20:56;;;;;;;15.70;9.85;;;11.20;79.10;;;;;;5106071;28;20027;-84
2022/04/05 11:23:43;;;;;;;15.50;9.65;;;11.10;79.00;;;;;;5102673;28;20024;-85
2022/04/05 11:26:41;;;;;;;15.27;9.70;;;11.30;82.50;;;;;;5087043;28;20020;-83
2022/04/05 11:29:21;;;;;;;10.45;7.50;;;11.50;83.80;;;;;;5085589;28;20039;-86
2022/04/05 11:32:05;;;;;;;19.92;10.25;;;11.70;78.70;;;;;;5099540;28;20044;-84
2022/04/05 11:34:39;;;;;;;20.20;10.85;;;11.80;80.40;;;;;;5091335;28;20024;-82
2022/04/05 11:37:07;;;;;;;18.13;10.35;;;11.70;79.30;;;;;;5098240;28;20059;-83
2022/04/05 11:39:38;;;;;;;16.83;11.30;;;11.70;81.50;;;;;;5096053;28;20032;-81
2022/04/05 11:42:04;;;;;;;18.67;11.32;;;11.90;80.70;;;;;;5099299;28;20020;-84
2022/04/05 11:44:30;;;;;;;20.08;9.93;;;11.80;79.10;;;;;;5093729;28;20055;-84
2022/04/05 11:46:58;;;;;;;30.05;17.80;;;11.90;81.30;;;;;;5097018;28;20028;-84
2022/04/05 11:49:24;;;;;;;17.65;10.75;;;12.10;79.70;;;;;;5104067;28;20170;-83
2022/04/05 11:51:51;;;;;;;19.77;11.35;;;12.20;77.60;;;;;;5099480;28;20032;-84
2022/04/05 11:54:24;;;;;;;16.45;9.60;;;12.30;76.30;;;;;;5087347;28;20089;-83
2022/04/05 11:56:51;;;;;;;22.73;10.02;;;12.30;78.20;;;;;;5093214;28;20653;-80
2022/04/05 11:59:25;;;;;;;16.60;10.07;;;12.40;78.80;;;;;;5086182;28;20013;-84
2022/04/05 12:01:51;;;;;;;17.20;10.07;;;12.60;76.20;;;;;;5080573;28;20024;-83
2022/04/05 12:04:21;;;;;;;16.15;10.00;;;12.50;72.40;;;;;;5092439;28;20027;-83
2022/04/05 12:06:52;;;;;;;12.10;9.45;;;12.50;73.20;;;;;;5093659;28;20028;-84
2022/04/05 12:09:19;;;;;;;14.40;10.05;;;12.40;73.00;;;;;;5087006;28;20039;-80
2022/04/05 12:11:52;;;;;;;30.60;12.45;;;12.30;75.50;;;;;;5088650;28;20035;-82
2022/04/05 12:14:21;;;;;;;45.00;12.80;;;12.60;76.80;;;;;;5083231;28;20479;-82
2022/04/05 12:17:01;;;;;;;18.42;10.57;;;12.80;76.20;;;;;;5081457;28;20374;-82
2022/04/05 12:19:39;;;;;;;14.32;9.43;;;12.70;74.30;;;;;;5080178;28;20021;-81
2022/04/05 12:22:11;;;;;;;18.10;11.73;;;12.90;78.70;;;;;;5084075;28;20048;-82
2022/04/05 12:24:42;;;;;;;17.48;10.57;;;12.80;75.90;;;;;;5091137;28;20027;-81
2022/04/05 12:27:08;;;;;;;18.75;10.23;;;12.90;74.50;;;;;;5097230;28;20031;-87
2022/04/05 12:29:40;;;;;;;15.45;9.05;;;12.80;73.50;;;;;;5099460;28;20055;-81
2022/04/05 12:32:08;;;;;;;16.38;9.20;;;12.90;73.50;;;;;;5100547;28;20550;-84
2022/04/05 12:34:34;;;;;;;15.30;8.40;;;12.90;70.80;;;;;;5093140;28;20028;-85
2022/04/05 12:37:03;;;;;;;14.50;9.40;;;12.90;72.30;;;;;;5096474;28;20387;-86
2022/04/05 12:39:31;;;;;;;12.85;9.30;;;12.90;72.60;;;;;;5101543;28;20035;-82